Time;durP1;ratioP1;P1;durP2;ratioP2;P2;SDS_P1;SDS_P2;PMS_P1;PMS_P2;Temp;Humidity;BMP_temperature;BMP_pressure;BME280_temperature;BME280_humidity;BME280_pressure;Samples;Min_cycle;Max_cycle;Signal;HPM_P1;HPM_P2
2021/06/14 00:00:24;;;;;;;11.18;4.70;;;;;;;13.69;64.07;102089.72;5096262;28;20031;-69
2021/06/14 00:02:50;;;;;;;11.82;4.80;;;;;;;13.66;64.55;102083.47;5096560;28;20059;-69
2021/06/14 00:05:39;;;;;;;8.70;5.00;;;;;;;13.66;64.59;102079.19;5095658;28;20027;-69
2021/06/14 00:08:06;;;;;;;15.75;5.13;;;;;;;13.66;64.46;102094.72;5092335;28;20080;-68
2021/06/14 00:10:32;;;;;;;10.77;4.63;;;;;;;13.68;64.45;102081.84;5088695;28;20111;-69
2021/06/14 00:12:59;;;;;;;8.95;4.75;;;;;;;13.65;64.61;102080.00;5095483;28;20028;-69
2021/06/14 00:15:25;;;;;;;12.63;5.25;;;;;;;13.67;64.42;102069.72;5095313;28;20074;-69
2021/06/14 00:17:51;;;;;;;11.68;4.85;;;;;;;13.66;64.36;102079.19;5095325;28;20024;-68
2021/06/14 00:20:18;;;;;;;12.25;4.53;;;;;;;13.63;64.72;102079.00;5096577;28;20027;-68
2021/06/14 00:22:44;;;;;;;8.85;4.45;;;;;;;13.55;64.85;102064.72;5094780;28;20032;-68
2021/06/14 00:25:12;;;;;;;9.13;4.70;;;;;;;13.54;64.73;102068.09;5077739;28;20024;-68
2021/06/14 00:27:38;;;;;;;9.27;3.92;;;;;;;13.41;65.12;102056.06;5094749;28;20048;-69
2021/06/14 00:30:08;;;;;;;9.80;4.40;;;;;;;13.37;65.29;102064.47;5078276;28;20120;-69
2021/06/14 00:32:33;;;;;;;14.63;4.55;;;;;;;13.34;65.40;102053.94;5094673;28;20512;-68
2021/06/14 00:34:59;;;;;;;10.25;4.43;;;;;;;13.32;65.36;102056.44;5095134;28;20059;-68
2021/06/14 00:37:24;;;;;;;7.97;4.15;;;;;;;13.21;66.13;102054.84;5094767;28;20036;-68
2021/06/14 00:39:51;;;;;;;9.25;4.90;;;;;;;13.24;65.75;102053.38;5095295;28;20032;-68
2021/06/14 00:42:16;;;;;;;13.10;4.75;;;;;;;13.26;65.79;102056.06;5094847;28;20031;-68
2021/06/14 00:44:43;;;;;;;9.63;4.68;;;;;;;13.24;65.69;102047.28;5096247;28;20024;-68
2021/06/14 00:47:08;;;;;;;12.60;5.57;;;;;;;13.24;65.56;102047.28;5094523;28;20046;-69
2021/06/14 00:49:34;;;;;;;7.13;4.43;;;;;;;13.17;65.70;102055.47;5094876;28;20465;-68
2021/06/14 00:51:59;;;;;;;13.43;4.93;;;;;;;13.14;65.46;102045.84;5094021;28;20039;-68
2021/06/14 00:54:24;;;;;;;10.60;4.40;;;;;;;13.09;66.08;102042.97;5094423;28;20032;-68
2021/06/14 00:56:50;;;;;;;8.38;4.10;;;;;;;13.06;66.29;102042.78;5093935;28;20031;-69
2021/06/14 00:59:16;;;;;;;12.50;4.40;;;;;;;13.03;66.07;102037.41;5094741;28;20356;-68
2021/06/14 01:01:42;;;;;;;10.25;4.20;;;;;;;12.99;66.12;102040.63;5077164;28;20099;-69
2021/06/14 01:04:08;;;;;;;8.75;4.63;;;;;;;12.99;66.15;102051.88;5077288;28;20119;-68
2021/06/14 01:06:33;;;;;;;5.78;3.78;;;;;;;12.96;65.99;102050.78;5094220;28;20350;-68
2021/06/14 01:08:59;;;;;;;12.77;4.32;;;;;;;12.97;66.48;102052.56;5095154;28;20103;-69
2021/06/14 01:11:50;;;;;;;8.95;4.93;;;;;;;13.02;66.22;102053.75;5095412;28;20024;-69
2021/06/14 01:14:45;;;;;;;12.15;4.57;;;;;;;12.95;66.43;102054.16;5094360;28;20020;-68
2021/06/14 01:17:25;;;;;;;13.23;4.68;;;;;;;12.94;66.89;102047.19;5094173;28;20023;-69
2021/06/14 01:20:12;;;;;;;8.35;4.68;;;;;;;12.91;66.70;102047.91;5094341;28;20072;-69
2021/06/14 01:22:47;;;;;;;11.20;5.10;;;;;;;12.92;67.02;102054.88;5095102;28;20020;-69
2021/06/14 01:25:16;;;;;;;9.07;4.70;;;;;;;12.86;67.08;102045.03;5093704;28;20489;-68
2021/06/14 01:27:48;;;;;;;10.20;4.18;;;;;;;12.94;66.93;102042.03;5086315;28;20044;-68
2021/06/14 01:30:42;;;;;;;11.18;4.60;;;;;;;12.96;67.00;102045.59;5073984;28;20507;-68
2021/06/14 01:33:09;;;;;;;12.32;4.35;;;;;;;12.97;66.78;102049.97;5072721;28;20040;-68
2021/06/14 01:35:39;;;;;;;11.05;4.43;;;;;;;12.97;66.88;102044.78;5074410;28;20039;-68
2021/06/14 01:38:07;;;;;;;11.20;4.55;;;;;;;12.93;67.10;102035.06;5110954;28;20070;-68
2021/06/14 01:40:34;;;;;;;8.43;5.00;;;;;;;12.99;66.93;102030.28;5083947;28;20363;-68
2021/06/14 01:43:04;;;;;;;10.20;4.70;;;;;;;12.99;67.02;102027.69;5090570;28;20077;-68
2021/06/14 01:45:30;;;;;;;11.73;4.80;;;;;;;12.95;67.05;102013.69;5110009;28;20019;-68
2021/06/14 01:47:57;;;;;;;10.05;4.70;;;;;;;12.97;67.07;102021.53;5075751;28;20102;-68
2021/06/14 01:50:25;;;;;;;11.70;4.30;;;;;;;12.96;66.99;102009.38;5073393;28;20500;-68
2021/06/14 01:52:51;;;;;;;10.75;4.35;;;;;;;12.91;66.81;102000.47;5077341;28;20016;-68
2021/06/14 01:55:18;;;;;;;13.48;5.15;;;;;;;12.88;66.57;102000.28;5087289;28;20046;-68
2021/06/14 01:57:44;;;;;;;8.63;4.18;;;;;;;12.86;66.57;102003.66;5089510;28;20073;-68
2021/06/14 02:00:11;;;;;;;8.68;4.43;;;;;;;12.79;66.79;101998.91;5073350;28;20477;-69
2021/06/14 02:02:38;;;;;;;10.98;4.50;;;;;;;12.74;66.59;102002.91;5089550;28;20076;-69
2021/06/14 02:05:04;;;;;;;10.85;5.13;;;;;;;12.68;66.67;102002.53;5093472;28;20027;-68
2021/06/14 02:07:31;;;;;;;9.15;4.30;;;;;;;12.62;66.32;101996.97;5076177;28;20497;-69
2021/06/14 02:09:57;;;;;;;8.48;4.70;;;;;;;12.53;66.66;101995.59;5060213;28;20063;-68
2021/06/14 02:12:24;;;;;;;10.50;4.43;;;;;;;12.54;66.31;101987.03;5093203;28;20039;-69
2021/06/14 02:14:49;;;;;;;9.50;4.68;;;;;;;12.45;66.69;101983.88;5110149;28;20031;-68
2021/06/14 02:17:19;;;;;;;12.15;4.78;;;;;;;12.49;66.56;101982.38;5092789;28;20116;-70
2021/06/14 02:19:47;;;;;;;11.60;4.82;;;;;;;12.48;66.37;101993.50;5076279;28;20036;-69
2021/06/14 02:22:14;;;;;;;11.27;4.80;;;;;;;12.45;66.39;101986.47;5086665;28;20035;-69
2021/06/14 02:24:40;;;;;;;11.05;4.72;;;;;;;12.44;66.62;101984.69;5079820;28;20034;-68
2021/06/14 02:27:06;;;;;;;11.07;4.75;;;;;;;12.36;66.56;101984.19;5080656;28;20048;-69
2021/06/14 02:29:32;;;;;;;9.05;4.47;;;;;;;12.30;66.95;101975.16;5092710;28;20038;-68
2021/06/14 02:31:57;;;;;;;11.40;4.90;;;;;;;12.24;67.00;101979.16;5084088;28;20016;-69
2021/06/14 02:34:23;;;;;;;12.10;4.55;;;;;;;12.21;67.54;101978.97;5094077;28;20374;-69
2021/06/14 02:36:51;;;;;;;13.73;4.90;;;;;;;12.23;67.08;101977.38;5089361;28;20064;-69
2021/06/14 02:39:21;;;;;;;10.82;4.50;;;;;;;12.30;67.25;101982.91;5073592;28;20134;-68
2021/06/14 02:41:47;;;;;;;10.07;4.70;;;;;;;12.30;67.34;101977.75;5073397;28;20024;-69
2021/06/14 02:44:13;;;;;;;11.15;5.65;;;;;;;12.26;67.68;101974.97;5092496;28;20114;-69
2021/06/14 02:46:40;;;;;;;12.20;5.32;;;;;;;12.31;67.27;101969.22;5087710;28;20020;-69
2021/06/14 02:49:06;;;;;;;7.97;4.43;;;;;;;12.30;67.19;101972.59;5083652;28;20521;-69
2021/06/14 02:51:34;;;;;;;8.25;4.10;;;;;;;12.30;67.54;101978.63;5064643;28;20123;-68
2021/06/14 02:54:04;;;;;;;8.77;4.60;;;;;;;12.29;67.26;101968.22;5081323;28;20392;-69
2021/06/14 02:56:34;;;;;;;10.80;4.50;;;;;;;12.31;66.67;101969.22;5081257;28;20020;-69
2021/06/14 02:59:03;;;;;;;16.65;5.70;;;;;;;12.34;66.65;101970.28;5078663;28;20028;-69
2021/06/14 03:01:30;;;;;;;10.48;4.65;;;;;;;12.29;66.91;101965.63;5081297;28;20385;-69
2021/06/14 03:03:57;;;;;;;13.93;4.63;;;;;;;12.22;67.61;101960.06;5114516;27;20460;-69
2021/06/14 03:06:23;;;;;;;12.55;5.32;;;;;;;12.25;67.65;101962.84;5084553;28;20078;-69
2021/06/14 03:08:50;;;;;;;14.93;5.80;;;;;;;12.32;67.74;101965.81;5085276;28;20032;-68
2021/06/14 03:11:17;;;;;;;12.75;5.35;;;;;;;12.27;67.60;101969.00;5080206;28;20021;-68
2021/06/14 03:13:45;;;;;;;15.15;5.18;;;;;;;12.31;67.57;101969.22;5092146;28;20020;-68
2021/06/14 03:16:14;;;;;;;15.33;4.63;;;;;;;12.29;67.63;101970.81;5091416;28;20115;-68
2021/06/14 03:18:40;;;;;;;12.02;4.47;;;;;;;12.23;67.57;101967.03;5084089;28;20028;-68
2021/06/14 03:21:06;;;;;;;15.68;5.10;;;;;;;12.31;67.14;101974.38;5091965;28;20036;-68
2021/06/14 03:23:32;;;;;;;11.30;4.68;;;;;;;12.24;67.93;101973.97;5087925;28;20062;-69
2021/06/14 03:25:58;;;;;;;17.17;5.60;;;;;;;12.27;67.50;101968.09;5079138;28;20024;-69
2021/06/14 03:28:25;;;;;;;12.93;6.30;;;;;;;12.30;67.46;101964.84;5085982;28;20048;-68
2021/06/14 03:30:51;;;;;;;16.02;5.35;;;;;;;12.32;67.54;101958.06;5090120;28;20078;-68
2021/06/14 03:33:18;;;;;;;16.70;5.05;;;;;;;12.40;67.71;101959.44;5088662;28;20028;-68
2021/06/14 03:35:46;;;;;;;11.75;5.63;;;;;;;12.32;68.04;101956.38;5073533;28;20024;-68
2021/06/14 03:38:12;;;;;;;17.77;5.47;;;;;;;12.42;67.80;101952.69;5091698;28;20038;-68
2021/06/14 03:40:38;;;;;;;14.38;5.30;;;;;;;12.39;68.00;101947.31;5081765;28;20035;-69
2021/06/14 03:43:05;;;;;;;12.98;5.50;;;;;;;12.49;68.10;101949.69;5088605;28;20028;-68
2021/06/14 03:45:32;;;;;;;13.57;4.57;;;;;;;12.47;68.19;101946.13;5090968;28;20020;-68
2021/06/14 03:47:58;;;;;;;14.00;5.75;;;;;;;12.53;67.79;101941.31;5093099;28;20020;-68
2021/06/14 03:50:24;;;;;;;11.02;5.10;;;;;;;12.50;68.41;101942.81;5089707;28;20433;-68
2021/06/14 03:52:50;;;;;;;12.27;4.95;;;;;;;12.64;67.86;101943.69;5071341;28;20031;-68
2021/06/14 03:55:16;;;;;;;12.27;5.60;;;;;;;12.66;67.83;101942.06;5072221;28;20028;-68
2021/06/14 03:57:41;;;;;;;13.63;5.00;;;;;;;12.73;67.55;101944.25;5071630;28;20054;-68
2021/06/14 04:00:10;;;;;;;14.13;5.45;;;;;;;12.74;67.80;101946.03;5088475;28;20115;-68
2021/06/14 04:02:35;;;;;;;9.85;4.70;;;;;;;12.67;68.12;101938.69;5071473;28;20115;-68
2021/06/14 04:05:01;;;;;;;14.45;5.03;;;;;;;12.76;67.91;101930.63;5071900;28;20115;-68
2021/06/14 04:07:26;;;;;;;13.70;4.97;;;;;;;12.88;67.74;101939.13;5074715;28;20067;-69
2021/06/14 04:09:52;;;;;;;11.23;5.40;;;;;;;12.88;67.49;101943.38;5073955;28;20020;-68
2021/06/14 04:12:18;;;;;;;13.35;5.50;;;;;;;12.94;67.63;101948.94;5092855;28;20099;-68
2021/06/14 04:14:45;;;;;;;15.55;5.00;;;;;;;12.91;67.60;101946.16;5086462;28;20416;-69
2021/06/14 04:17:10;;;;;;;12.15;5.07;;;;;;;12.73;68.21;101941.66;5084157;28;20023;-68
2021/06/14 04:19:36;;;;;;;12.07;5.10;;;;;;;12.74;68.40;101946.03;5092692;28;20089;-68
2021/06/14 04:22:04;;;;;;;10.85;4.95;;;;;;;13.06;67.41;101952.25;5091384;28;20028;-69
2021/06/14 04:24:29;;;;;;;11.38;4.95;;;;;;;12.98;67.53;101946.63;5098552;28;20035;-68
2021/06/14 04:26:54;;;;;;;8.50;4.57;;;;;;;13.05;67.00;101953.03;5092730;28;20044;-68
2021/06/14 04:29:20;;;;;;;13.27;5.22;;;;;;;12.94;67.98;101946.34;5112771;28;20028;-68
2021/06/14 04:31:45;;;;;;;11.63;4.75;;;;;;;13.12;67.60;101947.44;5112331;28;20023;-68
2021/06/14 04:34:11;;;;;;;10.55;5.30;;;;;;;13.36;66.91;101960.06;5094610;28;20023;-68
2021/06/14 04:36:36;;;;;;;12.82;4.80;;;;;;;13.58;65.92;101966.53;5112156;28;20032;-68
2021/06/14 04:39:03;;;;;;;10.13;5.15;;;;;;;13.67;65.96;101972.25;5094512;28;20046;-68
2021/06/14 04:41:29;;;;;;;13.52;4.95;;;;;;;13.79;65.89;101973.75;5094627;28;20070;-68
2021/06/14 04:43:55;;;;;;;9.48;4.80;;;;;;;13.85;65.54;101976.69;5094592;28;20503;-68
2021/06/14 04:46:21;;;;;;;12.18;5.20;;;;;;;14.00;65.35;101982.72;5098013;28;20027;-68
2021/06/14 04:48:47;;;;;;;11.40;4.38;;;;;;;14.09;65.18;101977.19;5098069;28;20119;-68
2021/06/14 04:51:12;;;;;;;13.40;6.05;;;;;;;14.13;64.17;101983.41;5098365;28;20100;-68
2021/06/14 04:53:40;;;;;;;11.25;4.53;;;;;;;14.15;64.87;101981.81;5097772;28;20461;-68
2021/06/14 04:56:06;;;;;;;17.70;4.85;;;;;;;14.31;64.08;101984.47;5097939;28;20527;-68
2021/06/14 04:58:31;;;;;;;9.15;4.13;;;;;;;14.13;63.86;101983.41;5115518;28;20054;-69
2021/06/14 05:00:57;;;;;;;6.80;4.07;;;;;;;14.31;63.78;101979.28;5097692;28;20051;-68
2021/06/14 05:03:22;;;;;;;13.57;4.53;;;;;;;14.21;63.54;101970.91;5116196;28;20063;-68
2021/06/14 05:05:47;;;;;;;9.48;4.00;;;;;;;14.19;63.70;101978.56;5118619;27;20106;-68
2021/06/14 05:08:18;;;;;;;13.63;4.45;;;;;;;14.50;62.50;101964.75;5105151;27;20034;-68
2021/06/14 05:10:43;;;;;;;6.18;3.53;;;;;;;14.55;62.23;101968.47;5105712;27;20015;-68
2021/06/14 05:13:08;;;;;;;14.57;4.43;;;;;;;14.54;62.30;101970.97;5103398;27;20380;-68
2021/06/14 05:15:34;;;;;;;11.77;4.03;;;;;;;14.79;62.30;101973.22;5123486;27;20110;-68
2021/06/14 05:17:59;;;;;;;8.13;3.60;;;;;;;15.01;62.13;101969.16;5105082;28;20077;-68
2021/06/14 05:20:25;;;;;;;9.55;3.95;;;;;;;15.08;61.17;101966.06;5115891;28;20084;-68
2021/06/14 05:22:51;;;;;;;11.25;4.20;;;;;;;14.64;63.01;101974.97;5115718;28;20019;-68
2021/06/14 05:25:16;;;;;;;6.40;3.50;;;;;;;14.76;61.97;101973.06;5115283;28;20099;-68
2021/06/14 05:27:42;;;;;;;14.50;4.00;;;;;;;14.88;61.86;101973.69;5092951;28;20055;-69
2021/06/14 05:30:08;;;;;;;8.82;3.50;;;;;;;15.10;61.08;101954.06;5093895;28;20357;-68
2021/06/14 05:32:33;;;;;;;6.22;3.83;;;;;;;15.19;61.20;101959.72;5094966;28;20068;-68
2021/06/14 05:34:59;;;;;;;13.40;4.68;;;;;;;15.29;61.60;101963.69;5094886;28;20028;-68
2021/06/14 05:37:25;;;;;;;8.60;3.13;;;;;;;15.57;60.51;101962.47;5092210;28;20027;-69
2021/06/14 05:39:50;;;;;;;10.75;3.35;;;;;;;15.48;60.46;101962.94;5076311;28;20028;-69
2021/06/14 05:42:16;;;;;;;7.75;3.50;;;;;;;15.68;60.37;101955.22;5095890;28;20032;-70
2021/06/14 05:44:41;;;;;;;8.18;3.72;;;;;;;15.66;60.53;101956.88;5085572;28;20436;-70
2021/06/14 05:47:07;;;;;;;16.10;4.40;;;;;;;15.64;59.87;101948.09;5076236;28;20541;-69
2021/06/14 05:49:33;;;;;;;12.05;4.63;;;;;;;15.80;60.50;101948.84;5098227;28;20468;-69
2021/06/14 05:52:00;;;;;;;12.90;3.20;;;;;;;15.82;59.81;101942.03;5104680;28;20491;-69
2021/06/14 05:54:26;;;;;;;9.73;3.80;;;;;;;15.81;58.76;101951.50;5111251;28;20061;-70
2021/06/14 05:56:51;;;;;;;12.27;3.75;;;;;;;15.92;59.46;101949.47;5101620;28;20051;-69
2021/06/14 05:59:17;;;;;;;8.73;3.08;;;;;;;16.28;59.63;101948.56;5100196;28;20035;-69
2021/06/14 06:01:42;;;;;;;12.50;3.63;;;;;;;16.14;57.40;101940.09;5096945;28;20107;-71
2021/06/14 06:04:08;;;;;;;11.65;2.97;;;;;;;16.02;58.36;101946.50;5092771;28;20103;-71
2021/06/14 06:06:33;;;;;;;9.07;3.20;;;;;;;16.06;58.94;101943.22;5075699;28;20129;-70
2021/06/14 06:08:58;;;;;;;6.18;3.58;;;;;;;16.31;57.49;101939.16;5092829;28;20054;-71
2021/06/14 06:11:24;;;;;;;11.85;3.80;;;;;;;16.38;57.43;101934.25;5094598;28;20055;-71
2021/06/14 06:13:49;;;;;;;12.43;3.88;;;;;;;16.48;59.01;101931.28;5092878;28;20055;-69
2021/06/14 06:16:15;;;;;;;9.88;4.43;;;;;;;16.56;56.89;101929.91;5084055;28;20040;-70
2021/06/14 06:18:40;;;;;;;10.13;4.35;;;;;;;16.82;56.49;101932.78;5096800;28;20032;-70
2021/06/14 06:21:05;;;;;;;9.05;3.58;;;;;;;17.02;56.13;101930.19;5104065;28;20032;-69
2021/06/14 06:23:31;;;;;;;11.27;4.03;;;;;;;17.02;56.43;101930.19;5102291;28;20016;-69
2021/06/14 06:25:57;;;;;;;10.80;3.13;;;;;;;17.00;54.70;101926.63;5103524;28;20038;-69
2021/06/14 06:28:22;;;;;;;9.07;3.65;;;;;;;17.23;54.54;101920.69;5099878;27;20139;-69
2021/06/14 06:30:48;;;;;;;10.77;2.80;;;;;;;17.12;54.37;101913.28;5098687;28;20026;-69
2021/06/14 06:33:14;;;;;;;6.93;2.58;;;;;;;17.10;54.24;101917.53;5122937;27;20047;-68
2021/06/14 06:35:40;;;;;;;7.68;2.67;;;;;;;17.27;52.84;101915.63;5118229;27;20023;-70
2021/06/14 06:38:05;;;;;;;6.30;2.55;;;;;;;17.42;53.12;101899.75;5104301;27;20023;-68
2021/06/14 06:40:31;;;;;;;9.55;2.70;;;;;;;17.53;53.23;101903.69;5099612;28;20092;-68
2021/06/14 06:42:57;;;;;;;8.00;2.10;;;;;;;17.72;53.03;101892.28;5113190;28;20026;-68
2021/06/14 06:45:23;;;;;;;6.55;2.17;;;;;;;17.98;52.97;101892.41;5094455;28;20103;-68
2021/06/14 06:47:49;;;;;;;7.80;2.30;;;;;;;17.93;51.38;101888.75;5086334;28;20477;-68
2021/06/14 06:50:15;;;;;;;10.43;2.50;;;;;;;17.95;51.91;101897.50;5088132;28;20579;-68
2021/06/14 06:52:41;;;;;;;8.18;2.28;;;;;;;18.02;50.75;101894.34;5095422;28;20058;-68
2021/06/14 06:55:09;;;;;;;4.63;2.17;;;;;;;18.18;48.87;101894.94;5095636;28;20155;-68
2021/06/14 06:57:36;;;;;;;5.57;2.85;;;;;;;18.34;49.68;101884.25;5095508;28;20035;-68
2021/06/14 07:00:06;;;;;;;9.30;2.00;;;;;;;18.39;49.59;101882.69;5113789;28;20031;-68
2021/06/14 07:02:32;;;;;;;4.03;2.00;;;;;;;18.56;50.03;101878.94;5095498;28;20366;-68
2021/06/14 07:04:57;;;;;;;7.75;1.98;;;;;;;18.64;49.55;101870.56;5095857;28;20142;-68
2021/06/14 07:07:23;;;;;;;6.40;2.58;;;;;;;19.00;49.68;101873.53;5095218;28;20019;-68
2021/06/14 07:09:48;;;;;;;15.10;2.58;;;;;;;18.88;48.77;101874.84;5113783;28;20063;-68
2021/06/14 07:12:15;;;;;;;7.93;2.58;;;;;;;19.01;47.46;101870.06;5113780;28;20334;-68
2021/06/14 07:14:41;;;;;;;8.55;2.15;;;;;;;19.17;48.71;101855.81;5078467;28;20383;-68
2021/06/14 07:17:06;;;;;;;7.57;2.13;;;;;;;19.20;48.14;101856.78;5113669;28;20254;-68
2021/06/14 07:19:32;;;;;;;5.28;2.10;;;;;;;19.43;47.72;101864.50;5113439;28;20046;-68
2021/06/14 07:21:58;;;;;;;7.63;2.30;;;;;;;19.35;46.71;101855.53;5113328;28;20027;-68
2021/06/14 07:24:23;;;;;;;6.22;2.15;;;;;;;19.49;46.31;101851.63;5113202;28;20079;-67
2021/06/14 07:26:49;;;;;;;5.70;1.90;;;;;;;19.47;45.98;101850.69;5077892;28;20065;-67
2021/06/14 07:29:14;;;;;;;11.25;2.53;;;;;;;19.64;45.83;101848.63;5095033;28;20027;-68
2021/06/14 07:31:40;;;;;;;9.52;2.15;;;;;;;19.78;46.72;101835.97;5094719;28;20032;-68
2021/06/14 07:34:08;;;;;;;12.10;2.28;;;;;;;19.87;47.29;101840.56;5112476;28;20052;-68
2021/06/14 07:36:34;;;;;;;7.05;2.40;;;;;;;20.18;46.37;101843.25;5094869;28;20380;-67
2021/06/14 07:38:59;;;;;;;7.90;2.42;;;;;;;20.44;44.88;101834.38;5094393;28;20491;-67
2021/06/14 07:41:25;;;;;;;9.25;3.30;;;;;;;20.44;44.16;101828.28;5094609;28;20126;-67
2021/06/14 07:43:51;;;;;;;8.30;2.67;;;;;;;20.26;43.59;101833.88;5093978;28;20024;-67
2021/06/14 07:46:17;;;;;;;9.50;2.90;;;;;;;20.39;44.00;101830.75;5111601;28;20365;-67
2021/06/14 07:48:42;;;;;;;11.30;2.63;;;;;;;20.48;45.19;101834.47;5093506;28;20372;-67
2021/06/14 07:51:09;;;;;;;6.30;2.83;;;;;;;20.42;43.44;101830.84;5112316;28;20031;-67
2021/06/14 07:53:35;;;;;;;11.65;3.28;;;;;;;20.43;43.69;101824.78;5112329;28;20020;-67
2021/06/14 07:56:02;;;;;;;9.85;3.03;;;;;;;20.75;44.76;101828.22;5112738;28;20457;-67
2021/06/14 07:58:28;;;;;;;8.07;3.15;;;;;;;20.84;43.38;101816.28;5094688;28;20027;-67
2021/06/14 08:00:54;;;;;;;8.90;2.80;;;;;;;21.25;44.38;101804.19;5095174;28;20126;-67
2021/06/14 08:03:24;;;;;;;10.40;3.33;;;;;;;21.21;43.05;101803.19;5094866;28;20031;-67
2021/06/14 08:05:50;;;;;;;;;;;;;;;21.43;42.87;101803.69;5095767;28;20043;-68
2021/06/14 08:08:15;;;;;;;8.15;3.03;;;;;;;21.30;41.50;101803.41;5094922;28;20328;-68
2021/06/14 08:10:43;;;;;;;10.15;3.33;;;;;;;21.07;42.11;101786.28;5095361;28;20518;-67
2021/06/14 08:13:08;;;;;;;9.60;2.92;;;;;;;20.94;42.93;101787.69;5113054;28;20016;-67
2021/06/14 08:15:34;;;;;;;9.27;3.33;;;;;;;21.04;42.95;101775.72;5095089;28;20016;-67
2021/06/14 08:25:31;;;;;;;7.82;3.00;;;;;;;21.78;42.44;101768.66;5099863;28;20084;-67
2021/06/14 08:27:57;;;;;;;8.02;3.22;;;;;;;21.87;42.10;101767.13;5116595;28;20058;-67
2021/06/14 08:30:25;;;;;;;11.10;2.97;;;;;;;22.32;41.61;101761.84;5098427;28;20019;-67
2021/06/14 08:32:51;;;;;;;9.88;3.05;;;;;;;22.50;41.32;101761.31;5098769;28;20167;-68
2021/06/14 08:35:20;;;;;;;11.38;3.33;;;;;;;22.38;39.75;101756.69;5098674;28;20134;-67
2021/06/14 08:37:47;;;;;;;11.27;3.63;;;;;;;22.35;41.31;101737.41;5116554;28;20084;-67
2021/06/14 08:40:17;;;;;;;9.00;3.33;;;;;;;22.71;42.40;101729.28;5098454;28;20035;-67
2021/06/14 08:42:42;;;;;;;;;;;;;;;22.65;40.00;101734.44;5098771;28;20024;-67
2021/06/14 08:45:10;;;;;;;13.73;3.28;;;;;;;22.75;39.22;101731.09;5098671;28;19907;-67
2021/06/14 08:47:37;;;;;;;16.60;3.72;;;;;;;22.52;40.83;101733.34;5116548;28;20058;-65
2021/06/14 08:50:05;;;;;;;8.32;3.38;;;;;;;22.90;40.35;101729.59;5116371;28;20069;-66
2021/06/14 08:52:30;;;;;;;11.82;3.42;;;;;;;22.75;39.12;101715.34;5098209;28;20437;-66
2021/06/14 08:54:56;;;;;;;8.80;3.47;;;;;;;22.87;40.54;101713.78;5081158;28;20464;-66
2021/06/14 08:57:21;;;;;;;7.03;3.35;;;;;;;23.13;38.34;101716.78;5098067;28;20023;-66
2021/06/14 08:59:47;;;;;;;9.57;3.60;;;;;;;23.20;40.65;101710.75;5080790;28;20072;-66
2021/06/14 09:02:12;;;;;;;9.30;3.60;;;;;;;23.62;38.46;101711.31;5116210;28;20032;-66
2021/06/14 09:04:38;;;;;;;9.65;3.35;;;;;;;23.73;39.30;101714.06;5116233;28;20031;-65
2021/06/14 09:07:04;;;;;;;6.90;3.80;;;;;;;23.70;37.32;101700.00;5097695;28;20023;-65
2021/06/14 09:09:31;;;;;;;11.77;3.53;;;;;;;23.64;37.17;101708.72;5116046;28;20366;-66
2021/06/14 09:11:59;;;;;;;9.63;3.55;;;;;;;23.50;37.53;101700.66;5115896;28;20027;-67
2021/06/14 09:14:27;;;;;;;8.40;3.25;;;;;;;23.89;37.80;101704.63;5097773;28;20499;-66
2021/06/14 09:16:58;;;;;;;13.65;3.55;;;;;;;24.01;37.36;101692.50;5097225;28;20119;-67
2021/06/14 09:19:35;;;;;;;11.73;4.28;;;;;;;24.28;36.10;101689.22;5115510;28;20469;-66
2021/06/14 09:22:15;;;;;;;14.43;3.42;;;;;;;24.39;35.48;101693.69;5096749;28;20024;-66
2021/06/14 09:24:59;;;;;;;9.38;3.90;;;;;;;24.68;35.86;101680.75;5096670;28;20376;-66
2021/06/14 09:27:35;;;;;;;10.13;3.63;;;;;;;25.08;34.26;101681.06;5096580;28;20039;-67
2021/06/14 09:30:18;;;;;;;8.70;3.33;;;;;;;25.44;33.08;101682.97;5115247;28;20020;-66
2021/06/14 09:32:53;;;;;;;11.38;3.05;;;;;;;26.91;31.28;101679.63;5097539;28;20360;-67
2021/06/14 09:35:20;;;;;;;12.43;3.05;;;;;;;27.78;28.61;101684.59;5114593;28;20528;-67
2021/06/14 09:38:16;;;;;;;4.75;2.30;;;;;;;28.35;27.92;101680.69;5096112;28;20406;-67
2021/06/14 09:40:50;;;;;;;9.55;3.40;;;;;;;27.90;28.49;101668.63;5085025;28;20039;-67
2021/06/14 09:43:28;;;;;;;12.98;3.33;;;;;;;28.57;28.96;101665.44;5103089;28;20033;-67
2021/06/14 09:45:55;;;;;;;8.02;3.10;;;;;;;29.07;27.04;101671.13;5114851;28;20073;-66
2021/06/14 09:48:23;;;;;;;14.48;3.17;;;;;;;29.63;26.47;101659.84;5096642;28;20038;-67
2021/06/14 09:50:50;;;;;;;7.78;3.00;;;;;;;30.63;25.55;101659.13;5114968;28;20030;-66
2021/06/14 09:53:18;;;;;;;7.88;3.00;;;;;;;30.53;24.58;101653.09;5097173;28;20035;-68
2021/06/14 09:55:44;;;;;;;12.07;3.03;;;;;;;32.26;22.78;101647.56;5097225;28;20019;-68
2021/06/14 09:58:15;;;;;;;5.68;2.60;;;;;;;34.43;20.29;101648.22;5096802;28;20392;-68
2021/06/14 10:00:53;;;;;;;11.02;2.65;;;;;;;34.18;19.91;101650.88;5097202;28;20031;-67
2021/06/14 10:03:18;;;;;;;9.68;3.00;;;;;;;36.15;18.18;101639.88;5114754;28;20026;-68
2021/06/14 10:05:46;;;;;;;6.70;2.72;;;;;;;36.54;16.50;101644.44;5096686;28;20417;-68
2021/06/14 10:08:12;;;;;;;7.57;2.88;;;;;;;37.32;16.39;101638.22;5096652;28;20464;-68
2021/06/14 10:10:39;;;;;;;6.55;2.30;;;;;;;37.87;16.89;101641.84;5096752;28;20031;-68
2021/06/14 10:13:05;;;;;;;7.70;2.70;;;;;;;37.73;17.03;101648.78;5096707;28;20073;-68
2021/06/14 10:15:38;;;;;;;10.80;4.00;;;;;;;37.82;15.95;101632.19;5096226;28;20227;-68
2021/06/14 10:18:08;;;;;;;8.93;2.88;;;;;;;36.79;17.68;101624.56;5096245;28;20491;-68
2021/06/14 10:20:36;;;;;;;7.57;2.65;;;;;;;37.04;17.10;101618.06;5079571;28;20027;-68
2021/06/14 10:23:03;;;;;;;7.40;3.10;;;;;;;36.63;17.36;101625.28;5096329;28;20106;-68
2021/06/14 10:25:29;;;;;;;8.65;2.75;;;;;;;37.43;16.03;101635.88;5114156;28;20023;-68
2021/06/14 10:27:55;;;;;;;8.48;3.25;;;;;;;37.70;15.96;101628.28;5095737;28;20480;-68
2021/06/14 10:30:22;;;;;;;6.95;2.78;;;;;;;38.34;15.55;101622.38;5113730;28;20026;-68
2021/06/14 10:32:49;;;;;;;8.52;3.15;;;;;;;38.45;15.43;101623.66;5095121;28;20020;-68
2021/06/14 10:35:16;;;;;;;6.85;2.67;;;;;;;37.73;16.41;101621.91;5094560;28;20465;-68
2021/06/14 10:37:44;;;;;;;9.40;3.38;;;;;;;35.89;16.89;101623.06;5112742;28;20087;-68
2021/06/14 10:40:13;;;;;;;7.35;2.88;;;;;;;37.80;15.99;101623.34;5112517;28;20521;-68
2021/06/14 10:42:39;;;;;;;7.20;2.50;;;;;;;39.20;14.68;101624.03;5093694;28;20124;-68
2021/06/14 10:45:06;;;;;;;8.45;2.90;;;;;;;38.11;16.16;101621.78;5112531;28;20104;-68
2021/06/14 10:47:32;;;;;;;4.30;2.30;;;;;;;38.54;15.09;101612.38;5094105;28;20038;-68
2021/06/14 10:49:58;;;;;;;10.15;2.95;;;;;;;36.66;16.10;101617.06;5094368;28;20423;-68
2021/06/14 10:52:23;;;;;;;7.85;3.25;;;;;;;37.86;15.07;101611.38;5094150;28;20030;-68
2021/06/14 10:54:49;;;;;;;7.93;3.30;;;;;;;38.37;15.49;101616.81;5094220;28;20084;-68
2021/06/14 10:57:14;;;;;;;10.60;3.38;;;;;;;37.28;16.70;101606.13;5111844;28;20019;-68
2021/06/14 10:59:43;;;;;;;10.75;2.58;;;;;;;36.35;17.38;101598.78;5111569;28;20061;-68
2021/06/14 11:02:10;;;;;;;8.63;3.10;;;;;;;37.44;16.77;101604.50;5093428;28;20020;-68
2021/06/14 11:04:36;;;;;;;7.75;2.60;;;;;;;36.70;16.76;101604.38;5093246;28;20027;-68
2021/06/14 11:07:02;;;;;;;9.20;2.95;;;;;;;37.62;16.70;101600.06;5093335;28;20353;-68
2021/06/14 11:09:41;;;;;;;6.32;2.60;;;;;;;36.58;16.98;101605.78;5093422;28;20111;-68
2021/06/14 11:12:09;;;;;;;7.82;2.33;;;;;;;36.02;17.71;101605.56;5111198;28;20062;-68
2021/06/14 11:14:41;;;;;;;6.43;2.50;;;;;;;35.21;19.66;101603.44;5105971;27;20495;-68
2021/06/14 11:17:26;;;;;;;5.97;2.65;;;;;;;32.81;21.86;101591.00;5099713;28;20027;-67
2021/06/14 11:20:11;;;;;;;6.57;2.67;;;;;;;32.17;22.63;101573.19;5111143;28;20420;-67
2021/06/14 11:22:54;;;;;;;4.95;2.63;;;;;;;31.43;23.10;101582.13;5111301;28;20035;-68
2021/06/14 11:25:30;;;;;;;11.48;3.00;;;;;;;31.15;24.69;101580.03;5111859;28;20370;-66
2021/06/14 11:28:01;;;;;;;8.30;3.47;;;;;;;30.80;25.22;101576.38;5110068;28;20285;-66
2021/06/14 11:30:49;;;;;;;8.13;2.42;;;;;;;30.30;25.49;101566.69;5093295;28;20066;-67